createdAt,value
2018-08-20T00:01:52.914Z,101199.06
2018-08-20T00:04:00.345Z,101197.97
2018-08-20T00:06:05.346Z,101196.67
2018-08-20T00:08:10.319Z,101195.12
2018-08-20T00:10:15.288Z,101196.62
2018-08-20T00:12:20.622Z,101193.73
2018-08-20T00:14:25.657Z,101187.59
2018-08-20T00:16:30.627Z,101184.53
2018-08-20T00:18:35.671Z,101190.02
2018-08-20T00:20:40.668Z,101187.44
2018-08-20T00:22:45.656Z,101194.30
2018-08-20T00:25:07.069Z,101200.88
2018-08-20T00:27:11.878Z,101195.95
2018-08-20T00:29:16.828Z,101189.97
2018-08-20T00:31:21.872Z,101196.16
2018-08-20T00:33:26.820Z,101195.98
2018-08-20T00:35:31.720Z,101194.21
2018-08-20T00:37:36.881Z,101200.77
2018-08-20T00:39:41.779Z,101197.44
2018-08-20T00:41:47.138Z,101200.81
2018-08-20T00:43:52.283Z,101204.76
2018-08-20T00:45:57.263Z,101200.17
2018-08-20T00:48:02.207Z,101198.45
2018-08-20T00:50:08.833Z,101206.80
2018-08-20T00:52:13.729Z,101199.55
2018-08-20T00:54:18.565Z,101192.87
2018-08-20T00:56:23.434Z,101197.37
2018-08-20T00:58:28.336Z,101190.16
2018-08-20T01:00:33.507Z,101187.64
2018-08-20T01:02:38.390Z,101188.77
2018-08-20T01:04:43.314Z,101187.81
2018-08-20T01:06:48.453Z,101190.09
2018-08-20T01:08:53.640Z,101178.16
2018-08-20T01:10:58.753Z,101190.16
2018-08-20T01:13:03.559Z,101188.09
2018-08-20T01:15:08.901Z,101182.23
2018-08-20T01:17:13.808Z,101187.94
2018-08-20T01:19:18.767Z,101189.78
2018-08-20T01:21:23.692Z,101191.78
2018-08-20T01:23:28.491Z,101189.63
2018-08-20T01:25:33.387Z,101186.51
2018-08-20T01:27:38.397Z,101185.43
2018-08-20T01:29:43.339Z,101176.54
2018-08-20T01:31:48.237Z,101168.78
2018-08-20T01:33:53.568Z,101176.88
2018-08-20T01:35:58.322Z,101170.19
2018-08-20T01:38:03.212Z,101169.58
2018-08-20T01:40:08.147Z,101176.86
2018-08-20T01:42:13.525Z,101172.27
2018-08-20T01:44:18.374Z,101185.25
2018-08-20T01:46:23.567Z,101175.78
2018-08-20T01:48:28.802Z,101184.78
2018-08-20T01:50:33.614Z,101185.91
2018-08-20T01:52:38.691Z,101181.91
2018-08-20T01:54:43.543Z,101184.02
2018-08-20T01:56:48.434Z,101184.23
2018-08-20T01:58:53.292Z,101185.61
2018-08-20T02:00:59.630Z,101177.53
2018-08-20T02:03:04.946Z,101186.91
2018-08-20T02:05:10.102Z,101174.41
2018-08-20T02:07:14.974Z,101177.70
2018-08-20T02:09:19.942Z,101178.92
2018-08-20T02:11:24.964Z,101163.43
2018-08-20T02:13:30.540Z,101164.04
2018-08-20T02:15:35.543Z,101163.92
2018-08-20T02:17:40.557Z,101165.13
2018-08-20T02:19:45.552Z,101160.87
2018-08-20T02:21:50.451Z,101161.55
2018-08-20T02:23:55.523Z,101162.21
2018-08-20T02:26:00.449Z,101164.33
2018-08-20T02:28:05.641Z,101168.95
2018-08-20T02:30:10.628Z,101170.20
2018-08-20T02:32:15.485Z,101162.69
2018-08-20T02:34:20.301Z,101169.52
2018-08-20T02:36:25.609Z,101161.25
2018-08-20T02:38:31.340Z,101163.43
2018-08-20T02:40:36.540Z,101161.04
2018-08-20T02:42:41.457Z,101158.48
2018-08-20T02:44:46.483Z,101160.48
2018-08-20T02:46:55.995Z,101162.73
2018-08-20T02:49:00.986Z,101158.88
2018-08-20T02:51:06.059Z,101152.20
2018-08-20T02:53:11.114Z,101165.54
2018-08-20T02:55:16.016Z,101164.41
2018-08-20T02:57:21.063Z,101163.94
2018-08-20T02:59:25.981Z,101163.38
2018-08-20T03:01:30.849Z,101164.64
2018-08-20T03:03:35.950Z,101166.16
2018-08-20T03:05:40.911Z,101162.31
2018-08-20T03:07:45.824Z,101152.70
2018-08-20T03:09:50.611Z,101156.09
2018-08-20T03:11:55.715Z,101153.70
2018-08-20T03:14:01.363Z,101147.75
2018-08-20T03:16:06.504Z,101153.05
2018-08-20T03:18:12.121Z,101149.55
2018-08-20T03:20:17.055Z,101154.01
2018-08-20T03:22:23.141Z,101149.78
2018-08-20T03:24:28.187Z,101157.50
2018-08-20T03:26:33.383Z,101164.06
2018-08-20T03:28:38.337Z,101164.47
2018-08-20T03:30:43.412Z,101173.84
2018-08-20T03:32:48.349Z,101181.38
2018-08-20T03:34:53.164Z,101172.77
2018-08-20T03:36:58.239Z,101170.73
2018-08-20T03:39:03.383Z,101174.83
2018-08-20T03:41:08.503Z,101170.16
2018-08-20T03:43:13.443Z,101168.55
2018-08-20T03:45:18.512Z,101166.33
2018-08-20T03:47:23.464Z,101167.51
2018-08-20T03:49:28.525Z,101167.74
2018-08-20T03:51:33.546Z,101170.56
2018-08-20T03:53:38.551Z,101163.36
2018-08-20T03:55:43.611Z,101171.34
2018-08-20T03:57:55.152Z,101179.19
2018-08-20T04:00:00.189Z,101180.23
2018-08-20T04:02:06.579Z,101180.69
2018-08-20T04:04:11.586Z,101174.07
2018-08-20T04:06:16.539Z,101180.73
2018-08-20T04:08:21.447Z,101176.27
2018-08-20T04:10:26.400Z,101174.40
2018-08-20T04:12:31.378Z,101176.70
2018-08-20T04:14:36.398Z,101179.41
2018-08-20T04:16:41.313Z,101184.63
2018-08-20T04:18:46.117Z,101179.50
2018-08-20T04:20:51.032Z,101184.19
2018-08-20T04:22:55.969Z,101175.31
2018-08-20T04:25:00.768Z,101177.19
2018-08-20T04:27:05.806Z,101178.44
2018-08-20T04:29:11.675Z,101175.85
2018-08-20T04:31:16.605Z,101173.65
2018-08-20T04:33:21.428Z,101169.22
2018-08-20T04:35:26.435Z,101170.30
2018-08-20T04:37:31.655Z,101173.30
2018-08-20T04:39:38.014Z,101163.66
2018-08-20T04:41:43.285Z,101163.66
2018-08-20T04:43:48.221Z,101173.69
2018-08-20T04:45:53.109Z,101168.41
2018-08-20T04:47:58.038Z,101174.14
2018-08-20T04:50:03.876Z,101167.95
2018-08-20T04:52:09.826Z,101174.27
2018-08-20T04:54:15.189Z,101168.41
2018-08-20T04:56:20.089Z,101179.89
2018-08-20T04:58:24.996Z,101178.28
2018-08-20T05:00:29.927Z,101176.13
2018-08-20T05:02:34.916Z,101170.19
2018-08-20T05:04:40.155Z,101173.38
2018-08-20T05:06:45.219Z,101177.41
2018-08-20T05:08:50.064Z,101177.86
2018-08-20T05:10:54.958Z,101178.68
2018-08-20T05:12:59.849Z,101173.31
2018-08-20T05:15:05.375Z,101175.47
2018-08-20T05:17:10.202Z,101178.84
2018-08-20T05:19:15.113Z,101174.96
2018-08-20T05:21:19.988Z,101179.16
2018-08-20T05:23:26.191Z,101178.92
2018-08-20T05:25:31.429Z,101179.30
2018-08-20T05:27:36.218Z,101177.56
2018-08-20T05:34:35.227Z,101189.14
2018-08-20T05:36:51.596Z,101191.70
2018-08-20T05:39:10.053Z,101193.03
2018-08-20T05:41:14.983Z,101191.45
2018-08-20T05:43:20.019Z,101190.28
2018-08-20T05:45:25.002Z,101196.86
2018-08-20T05:47:29.834Z,101198.59
2018-08-20T05:49:34.690Z,101192.29
2018-08-20T05:51:39.733Z,101204.34
2018-08-20T05:53:48.769Z,101204.88
2018-08-20T05:55:57.839Z,101202.75
2018-08-20T05:58:03.120Z,101205.66
2018-08-20T06:00:15.173Z,101205.05
2018-08-20T06:02:20.175Z,101205.99
2018-08-20T06:04:25.224Z,101208.14
2018-08-20T06:06:31.756Z,101213.08
2018-08-20T06:08:36.734Z,101209.42
2018-08-20T06:10:47.745Z,101205.09
2018-08-20T06:12:54.722Z,101213.34
2018-08-20T06:15:03.333Z,101212.47
2018-08-20T06:17:09.563Z,101213.32
2018-08-20T06:19:17.620Z,101216.58
2018-08-20T06:21:22.645Z,101213.73
2018-08-20T06:23:27.994Z,101224.17
2018-08-20T06:25:34.733Z,101222.42
2018-08-20T06:27:41.164Z,101225.69
2018-08-20T06:29:46.133Z,101225.83
2018-08-20T06:31:51.085Z,101225.91
2018-08-20T06:33:56.496Z,101231.48
2018-08-20T06:36:01.403Z,101225.58
2018-08-20T06:38:06.631Z,101224.61
2018-08-20T06:40:14.742Z,101232.36
2018-08-20T06:42:19.666Z,101222.11
2018-08-20T06:44:24.610Z,101232.14
2018-08-20T06:46:29.459Z,101234.09
2018-08-20T06:48:34.310Z,101233.73
2018-08-20T06:50:39.445Z,101231.80
2018-08-20T06:52:45.107Z,101232.02
2018-08-20T06:54:50.339Z,101236.58
2018-08-20T06:56:55.233Z,101233.09
2018-08-20T06:59:00.387Z,101241.25
2018-08-20T07:01:05.310Z,101242.80
2018-08-20T07:03:10.790Z,101251.16
2018-08-20T07:05:15.800Z,101240.98
2018-08-20T07:07:20.874Z,101249.30
2018-08-20T07:09:25.949Z,101249.72
2018-08-20T07:11:30.736Z,101252.74
2018-08-20T07:13:36.646Z,101250.33
2018-08-20T07:15:41.764Z,101256.20
2018-08-20T07:17:46.823Z,101258.03
2018-08-20T07:19:52.365Z,101262.15
2018-08-20T07:21:57.550Z,101267.53
2018-08-20T07:24:03.020Z,101269.39
2018-08-20T07:26:08.326Z,101261.00
2018-08-20T07:28:13.697Z,101271.96
2018-08-20T07:30:18.598Z,101266.75
2018-08-20T07:32:24.129Z,101267.50
2018-08-20T07:34:30.389Z,101272.65
2018-08-20T07:36:35.573Z,101268.76
2018-08-20T07:38:40.558Z,101276.60
2018-08-20T07:40:45.535Z,101278.20
2018-08-20T07:42:50.480Z,101277.89
2018-08-20T07:44:55.613Z,101282.78
2018-08-20T07:47:00.701Z,101284.59
2018-08-20T07:49:09.863Z,101284.94
2018-08-20T07:51:14.798Z,101284.69
2018-08-20T07:53:19.728Z,101286.38
2018-08-20T07:55:24.925Z,101297.05
2018-08-20T07:57:31.667Z,101296.06
2018-08-20T07:59:36.806Z,101291.40
2018-08-20T08:01:42.053Z,101292.80
2018-08-20T08:03:47.416Z,101296.20
2018-08-20T08:05:52.609Z,101298.02
2018-08-20T08:07:57.597Z,101300.70
2018-08-20T08:10:02.569Z,101182.73
2018-08-20T08:12:08.201Z,101299.41
2018-08-20T08:14:13.366Z,101302.97
2018-08-20T08:16:18.286Z,101299.30
2018-08-20T08:18:24.235Z,101300.94
2018-08-20T08:20:29.141Z,101298.58
2018-08-20T08:22:34.032Z,101302.00
2018-08-20T08:24:39.008Z,101310.63
2018-08-20T08:26:44.487Z,101312.53
2018-08-20T08:28:50.372Z,101305.17
2018-08-20T08:30:55.413Z,101307.66
2018-08-20T08:33:00.333Z,101314.93
2018-08-20T08:35:05.997Z,101291.20
2018-08-20T08:37:11.084Z,101318.47
2018-08-20T08:39:16.684Z,101321.16
2018-08-20T08:41:21.780Z,101312.16
2018-08-20T08:43:26.762Z,101323.78
2018-08-20T08:45:31.745Z,101320.05
2018-08-20T08:47:36.710Z,101319.40
2018-08-20T08:49:41.777Z,101316.01
2018-08-20T08:51:46.783Z,101316.34
2018-08-20T08:53:51.903Z,101319.71
2018-08-20T08:55:56.944Z,101322.20
2018-08-20T08:58:01.947Z,101319.45
2018-08-20T09:00:17.591Z,101324.86
2018-08-20T09:02:22.694Z,101323.48
2018-08-20T09:04:27.686Z,101325.91
2018-08-20T09:06:32.726Z,101326.64
2018-08-20T09:08:37.534Z,101327.59
2018-08-20T09:10:43.598Z,101328.31
2018-08-20T09:12:48.694Z,101325.48
2018-08-20T09:14:53.685Z,101324.94
2018-08-20T09:17:00.619Z,101321.49
2018-08-20T09:19:05.809Z,101331.70
2018-08-20T09:21:11.065Z,101329.22
2018-08-20T09:23:16.145Z,101334.19
2018-08-20T09:25:21.142Z,101338.34
2018-08-20T09:27:26.061Z,101341.23
2018-08-20T09:29:31.243Z,101337.30
2018-08-20T09:31:37.229Z,101334.14
2018-08-20T09:33:42.328Z,101331.38
2018-08-20T09:35:47.293Z,101336.71
2018-08-20T09:37:52.466Z,101333.92
2018-08-20T09:39:57.506Z,101336.30
2018-08-20T09:42:02.492Z,101339.86
2018-08-20T09:44:07.706Z,101333.77
2018-08-20T09:46:12.663Z,101341.36
2018-08-20T09:48:17.806Z,101330.83
2018-08-20T09:50:22.886Z,101342.29
2018-08-20T09:52:27.970Z,101343.93
2018-08-20T09:54:33.302Z,101342.63
2018-08-20T09:56:38.332Z,101344.69
2018-08-20T09:58:43.564Z,101345.03
2018-08-20T10:00:48.708Z,101343.86
2018-08-20T10:02:53.772Z,101349.97
2018-08-20T10:04:59.257Z,101339.41
2018-08-20T10:07:04.656Z,101345.25
2018-08-20T10:09:10.233Z,101327.55
2018-08-20T10:11:15.180Z,101343.09
2018-08-20T10:13:20.094Z,101336.38
2018-08-20T10:15:25.306Z,101337.73
2018-08-20T10:17:30.218Z,101340.25
2018-08-20T10:19:35.550Z,101341.23
2018-08-20T10:21:40.391Z,101336.45
2018-08-20T10:23:45.245Z,101339.98
2018-08-20T10:25:50.417Z,101345.64
2018-08-20T10:27:55.761Z,101345.14
2018-08-20T10:30:00.726Z,101345.19
2018-08-20T10:32:05.772Z,101348.53
2018-08-20T10:34:10.761Z,101344.50
2018-08-20T10:36:15.885Z,101345.94
2018-08-20T10:38:20.779Z,101350.08
2018-08-20T10:40:25.636Z,101351.36
2018-08-20T10:42:30.837Z,101351.20
2018-08-20T10:44:40.742Z,101354.67
2018-08-20T10:46:45.674Z,101352.00
2018-08-20T10:48:50.739Z,101350.28
2018-08-20T10:50:55.686Z,101343.95
2018-08-20T10:53:00.638Z,101339.02
2018-08-20T10:55:05.825Z,101333.09
2018-08-20T10:57:10.692Z,101339.14
2018-08-20T10:59:15.641Z,101347.36
2018-08-20T11:01:20.516Z,101351.35
2018-08-20T11:03:25.977Z,101348.92
2018-08-20T11:05:31.639Z,101354.48
2018-08-20T11:07:36.571Z,101355.47
2018-08-20T11:09:41.476Z,101355.52
2018-08-20T11:11:46.389Z,101353.83
2018-08-20T11:13:51.293Z,101360.77
2018-08-20T11:15:56.241Z,101345.68
2018-08-20T11:18:01.188Z,101350.86
2018-08-20T11:20:17.142Z,101352.92
2018-08-20T11:22:22.026Z,101349.53
2018-08-20T11:24:26.996Z,101346.08
2018-08-20T11:26:32.678Z,101348.41
2018-08-20T11:28:39.892Z,101355.98
2018-08-20T11:30:49.618Z,101355.58
2018-08-20T11:32:54.751Z,101324.83
2018-08-20T11:34:59.610Z,101353.71
2018-08-20T11:37:04.569Z,101343.52
2018-08-20T11:39:09.894Z,101350.96
2018-08-20T11:41:14.865Z,101349.52
2018-08-20T11:43:19.748Z,101347.80
2018-08-20T11:45:24.978Z,101341.74
2018-08-20T11:47:29.917Z,101344.47
2018-08-20T11:49:34.757Z,101342.28
2018-08-20T11:51:40.524Z,101338.36
2018-08-20T11:53:45.597Z,101339.28
2018-08-20T11:55:50.662Z,101335.83
2018-08-20T11:57:55.577Z,101333.62
2018-08-20T12:00:00.532Z,101328.82
2018-08-20T12:02:05.516Z,101322.59
2018-08-20T12:04:10.552Z,101322.69
2018-08-20T12:06:15.610Z,101320.50
2018-08-20T12:08:29.738Z,101326.20
2018-08-20T12:10:35.133Z,101331.86
2018-08-20T12:12:40.565Z,101331.45
2018-08-20T12:14:45.712Z,101337.09
2018-08-20T12:16:50.690Z,101337.57
2018-08-20T12:18:55.564Z,101338.87
2018-08-20T12:21:00.834Z,101337.57
2018-08-20T12:23:05.719Z,101332.73
2018-08-20T12:25:13.538Z,101331.89
2018-08-20T12:27:19.388Z,101326.62
2018-08-20T12:29:24.499Z,101334.50
2018-08-20T12:31:30.072Z,101330.56
2018-08-20T12:33:35.016Z,101326.19
2018-08-20T12:35:40.854Z,101329.68
2018-08-20T12:37:46.229Z,101302.16
2018-08-20T12:39:51.284Z,101332.29
2018-08-20T12:41:56.127Z,101329.67
2018-08-20T12:44:01.016Z,101326.62
2018-08-20T12:46:07.685Z,101328.30
2018-08-20T12:48:12.545Z,101330.98
2018-08-20T12:50:17.622Z,101334.03
2018-08-20T12:52:23.401Z,101331.81
2018-08-20T12:54:31.321Z,101329.06
2018-08-20T12:56:36.696Z,101328.22
2018-08-20T12:58:51.697Z,101330.44
2018-08-20T13:00:57.981Z,101325.63
2018-08-20T13:03:03.027Z,101332.61
2018-08-20T13:05:07.915Z,101326.90
2018-08-20T13:07:13.058Z,101322.05
2018-08-20T13:09:18.018Z,101327.27
2018-08-20T13:11:22.948Z,101333.23
2018-08-20T13:13:28.001Z,101323.92
2018-08-20T13:15:33.637Z,101302.80
2018-08-20T13:17:39.232Z,101283.98
2018-08-20T13:19:44.204Z,101338.37
2018-08-20T13:21:49.204Z,101346.75
2018-08-20T13:23:54.438Z,101346.56
2018-08-20T13:25:59.537Z,101338.02
2018-08-20T13:28:04.767Z,101332.45
2018-08-20T13:30:10.979Z,101329.70
2018-08-20T13:32:16.060Z,101324.92
2018-08-20T13:34:21.330Z,101326.55
2018-08-20T13:36:26.186Z,101321.50
2018-08-20T13:38:31.088Z,101319.58
2018-08-20T13:40:36.139Z,101325.22
2018-08-20T13:42:41.121Z,101320.77
2018-08-20T13:44:46.330Z,101321.86
2018-08-20T13:46:51.671Z,101323.48
2018-08-20T13:48:56.715Z,101325.78
2018-08-20T13:51:04.613Z,101323.27
2018-08-20T13:53:09.490Z,101329.45
2018-08-20T13:55:14.607Z,101322.17
2018-08-20T13:57:19.591Z,101326.79
2018-08-20T13:59:24.942Z,101330.00
2018-08-20T14:01:30.509Z,101307.69
2018-08-20T14:03:36.151Z,101306.91
2018-08-20T14:05:41.079Z,101322.34
2018-08-20T14:07:51.562Z,101323.20
2018-08-20T14:09:56.500Z,101330.27
2018-08-20T14:12:01.445Z,101324.55
2018-08-20T14:14:06.807Z,101327.70
2018-08-20T14:16:11.709Z,101325.87
2018-08-20T14:18:16.589Z,101326.76
2018-08-20T14:20:21.498Z,101323.66
2018-08-20T14:22:27.492Z,101328.25
2018-08-20T14:24:34.625Z,101323.33
2018-08-20T14:26:39.629Z,101332.54
2018-08-20T14:28:44.714Z,101331.84
2018-08-20T14:30:50.043Z,101330.50
2018-08-20T14:32:56.830Z,101322.77
2018-08-20T14:35:02.676Z,101328.37
2018-08-20T14:37:07.946Z,101324.64
2018-08-20T14:39:13.408Z,101324.16
2018-08-20T14:41:19.523Z,101331.28
2018-08-20T14:43:25.426Z,101323.60
2018-08-20T14:45:40.766Z,101333.03
2018-08-20T14:47:46.956Z,101325.81
2018-08-20T14:49:52.011Z,101328.94
2018-08-20T14:57:27.105Z,101327.98
2018-08-20T15:02:30.735Z,101325.78
2018-08-20T15:04:42.914Z,101322.28
2018-08-20T15:07:08.197Z,101325.71
2018-08-20T15:09:19.585Z,101329.60
2018-08-20T15:11:25.106Z,101328.78
2018-08-20T15:13:33.363Z,101325.77
2018-08-20T15:15:44.500Z,101322.27
2018-08-20T15:17:49.667Z,101318.70
2018-08-20T15:19:56.876Z,101323.12
2018-08-20T15:22:01.949Z,101317.14
2018-08-20T15:24:07.354Z,101317.52
2018-08-20T15:26:13.840Z,101319.27
2018-08-20T15:28:18.907Z,101316.30
2018-08-20T15:30:26.723Z,101320.36
2018-08-20T15:32:31.911Z,101322.63
2018-08-20T15:34:38.843Z,101317.01
2018-08-20T15:36:43.976Z,101311.33
2018-08-20T15:38:48.912Z,101317.88
2018-08-20T15:40:54.530Z,101319.23
2018-08-20T15:42:59.401Z,101314.16
2018-08-20T15:45:04.403Z,101312.37
2018-08-20T15:47:09.455Z,101318.22
2018-08-20T15:49:14.541Z,101315.41
2018-08-20T15:51:19.498Z,101316.56
2018-08-20T15:53:24.324Z,101321.00
2018-08-20T15:55:29.424Z,101316.58
2018-08-20T15:57:35.709Z,101307.03
2018-08-20T15:59:41.616Z,101307.85
2018-08-20T16:01:49.455Z,101318.62
2018-08-20T16:03:54.526Z,101310.34
2018-08-20T16:06:00.970Z,101309.45
2018-08-20T16:08:06.645Z,101313.69
2018-08-20T16:10:13.110Z,101312.02
2018-08-20T16:12:23.669Z,101310.05
2018-08-20T16:14:28.501Z,101311.77
2018-08-20T16:16:33.594Z,101317.28
2018-08-20T16:18:38.615Z,101313.16
2018-08-20T16:20:47.985Z,101305.52
2018-08-20T16:22:52.981Z,101304.30
2018-08-20T16:24:58.030Z,101303.30
2018-08-20T16:27:03.094Z,101300.80
2018-08-20T16:29:09.726Z,101309.31
2018-08-20T16:31:17.027Z,101297.95
2018-08-20T16:33:26.154Z,101297.03
2018-08-20T16:35:31.891Z,101302.75
2018-08-20T16:37:37.934Z,101300.71
2018-08-20T16:39:43.856Z,101298.42
2018-08-20T16:41:50.292Z,101301.05
2018-08-20T16:43:57.115Z,101300.97
2018-08-20T16:46:03.044Z,101292.21
2018-08-20T16:48:08.499Z,101299.42
2018-08-20T16:50:14.363Z,101292.62
2018-08-20T16:52:22.855Z,101297.34
2018-08-20T16:54:33.310Z,101292.60
2018-08-20T16:56:39.381Z,101278.20
2018-08-20T16:58:46.126Z,101294.95
2018-08-20T17:00:55.302Z,101298.53
2018-08-20T17:03:02.351Z,101296.66
2018-08-20T17:05:07.673Z,101289.55
2018-08-20T17:07:14.563Z,101288.59
2018-08-20T17:09:20.054Z,101290.72
2018-08-20T17:11:24.991Z,101283.69
2018-08-20T17:13:30.379Z,101289.38
2018-08-20T17:15:35.430Z,101292.07
2018-08-20T17:17:42.419Z,101281.50
2018-08-20T17:19:47.968Z,101288.63
2018-08-20T17:21:57.069Z,101293.38
2018-08-20T17:24:02.612Z,101287.84
2018-08-20T17:26:09.553Z,101283.41
2018-08-20T17:28:15.047Z,101286.27
2018-08-20T17:30:22.586Z,101288.84
2018-08-20T17:32:28.009Z,101263.11
2018-08-20T17:34:33.347Z,101289.72
2018-08-20T17:40:02.884Z,101291.48
2018-08-20T17:42:08.718Z,101295.94
2018-08-20T17:44:23.095Z,101298.08
2018-08-20T17:46:29.877Z,101296.69
2018-08-20T17:48:35.610Z,101294.92
2018-08-20T17:50:43.377Z,101294.77
2018-08-20T17:52:48.405Z,101291.84
2018-08-20T17:55:05.934Z,101295.27
2018-08-20T17:57:16.967Z,101300.39
2018-08-20T17:59:24.562Z,101297.24
2018-08-20T18:01:31.865Z,101293.33
2018-08-20T18:03:37.502Z,101295.78
2018-08-20T18:05:43.393Z,101284.22
2018-08-20T18:07:52.238Z,101289.08
2018-08-20T18:09:57.554Z,101296.83
2018-08-20T18:12:04.217Z,101288.94
2018-08-20T18:14:09.684Z,101292.96
2018-08-20T18:16:16.822Z,101297.64
2018-08-20T18:18:25.396Z,101287.09
2018-08-20T18:20:36.306Z,101299.83
2018-08-20T18:22:41.564Z,101302.70
2018-08-20T18:24:48.025Z,101308.17
2018-08-20T18:26:56.685Z,101306.76
2018-08-20T18:29:01.772Z,101305.34
2018-08-20T18:31:12.927Z,101310.27
2018-08-20T18:33:19.072Z,101316.16
2018-08-20T18:35:33.155Z,101313.71
2018-08-20T18:37:52.649Z,101319.73
2018-08-20T18:40:01.702Z,101301.27
2018-08-20T18:42:15.185Z,101321.64
2018-08-20T18:44:21.849Z,101325.09
2018-08-20T18:46:29.755Z,101331.95
2018-08-20T18:48:40.676Z,101335.83
2018-08-20T18:50:47.845Z,101328.55
2018-08-20T18:53:04.277Z,101328.58
2018-08-20T18:55:34.116Z,101329.68
2018-08-20T19:02:58.488Z,101331.84
2018-08-20T19:05:07.487Z,101335.88
2018-08-20T19:07:15.816Z,101343.13
2018-08-20T19:09:27.097Z,101342.81
2018-08-20T19:11:35.170Z,101344.70
2018-08-20T19:13:46.317Z,101347.02
2018-08-20T19:15:54.158Z,101342.78
2018-08-20T19:18:00.820Z,101344.68
2018-08-20T19:20:06.136Z,101339.53
2018-08-20T19:22:16.211Z,101338.18
2018-08-20T19:24:23.552Z,101339.36
2018-08-20T19:26:30.414Z,101337.23
2018-08-20T19:28:39.704Z,101341.99
2018-08-20T19:30:45.597Z,101340.75
2018-08-20T19:32:53.175Z,101346.91
2018-08-20T19:34:58.756Z,101343.44
2018-08-20T19:37:04.568Z,101344.41
2018-08-20T19:39:10.694Z,101342.93
2018-08-20T19:41:17.743Z,101338.39
2018-08-20T19:43:24.102Z,101340.14
2018-08-20T19:45:35.259Z,101333.91
2018-08-20T19:47:41.309Z,101339.31
2018-08-20T19:49:48.293Z,101341.80
2018-08-20T19:51:57.432Z,101343.16
2018-08-20T19:54:05.310Z,101341.55
2018-08-20T19:56:22.465Z,101349.14
2018-08-20T19:58:34.691Z,101353.20
2018-08-20T20:00:42.696Z,101345.19
2018-08-20T20:02:49.078Z,101347.98
2018-08-20T20:04:55.471Z,101344.85
2018-08-20T20:07:02.291Z,101350.27
2018-08-20T20:09:15.272Z,101356.22
2018-08-20T20:11:26.655Z,101343.40
2018-08-20T20:13:34.462Z,101325.17
2018-08-20T20:15:49.493Z,101344.61
2018-08-20T20:17:57.807Z,101353.80
2018-08-20T20:20:06.545Z,101344.85
2018-08-20T20:22:18.088Z,101358.96
2018-08-20T20:24:25.558Z,101352.55
2018-08-20T20:26:40.112Z,101349.40
2018-08-20T20:28:46.307Z,101359.78
2018-08-20T20:30:55.879Z,101342.23
2018-08-20T20:33:02.089Z,101358.92
2018-08-20T20:35:09.088Z,101363.31
2018-08-20T20:37:14.846Z,101358.56
2018-08-20T20:39:20.431Z,101364.56
2018-08-20T20:41:25.807Z,101360.63
2018-08-20T20:43:37.332Z,101370.16
2018-08-20T20:45:43.083Z,101360.54
2018-08-20T20:47:49.231Z,101364.41
2018-08-20T20:49:56.073Z,101363.05
2018-08-20T20:52:02.654Z,101360.00
2018-08-20T20:54:07.820Z,101362.17
2018-08-20T20:56:16.182Z,101367.44
2018-08-20T20:58:25.289Z,101362.22
2018-08-20T21:00:32.372Z,101368.73
2018-08-20T21:05:01.280Z,101372.27
2018-08-20T21:07:08.121Z,101370.56
2018-08-20T21:09:14.667Z,101375.67
2018-08-20T21:11:22.451Z,101372.52
2018-08-20T21:13:29.819Z,101377.00
2018-08-20T21:15:35.234Z,101380.48
2018-08-20T21:17:41.348Z,101379.98
2018-08-20T21:19:49.184Z,101371.12
2018-08-20T21:22:12.942Z,101382.90
2018-08-20T21:24:46.777Z,101383.12
2018-08-20T21:27:05.869Z,101378.98
2018-08-20T21:32:11.325Z,101384.16
2018-08-20T21:39:28.010Z,101383.52
2018-08-20T21:44:23.544Z,101382.56
2018-08-20T21:46:42.924Z,101387.43
2018-08-20T21:49:09.702Z,101389.20
2018-08-20T21:51:33.704Z,101386.09
2018-08-20T21:53:51.575Z,101386.44
2018-08-20T21:55:59.269Z,101385.08
2018-08-20T21:58:04.743Z,101390.34
2018-08-20T22:02:34.444Z,101392.92
2018-08-20T22:04:40.340Z,101390.34
2018-08-20T22:06:55.704Z,101392.50
2018-08-20T22:09:03.061Z,101390.23
2018-08-20T22:13:38.971Z,101397.20
2018-08-20T22:15:51.192Z,101392.92
2018-08-20T22:17:59.375Z,101395.50
2018-08-20T22:20:11.757Z,101398.91
2018-08-20T22:22:29.624Z,101386.14
2018-08-20T22:24:34.807Z,101389.70
2018-08-20T22:26:59.382Z,101394.52
2018-08-20T22:29:10.548Z,101393.50
2018-08-20T22:31:17.039Z,101393.50
2018-08-20T22:33:21.968Z,101392.17
2018-08-20T22:35:31.442Z,101390.36
2018-08-20T22:37:37.120Z,101391.19
2018-08-20T22:39:43.754Z,101387.81
2018-08-20T22:41:50.645Z,101387.84
2018-08-20T22:43:55.672Z,101385.97
2018-08-20T22:46:00.714Z,101389.39
2018-08-20T22:48:05.743Z,101387.64
2018-08-20T22:50:10.813Z,101392.38
2018-08-20T22:52:20.092Z,101387.92
2018-08-20T22:54:25.343Z,101383.94
2018-08-20T22:56:38.237Z,101389.98
2018-08-20T22:58:44.463Z,101393.87
2018-08-20T23:00:50.729Z,101389.94
2018-08-20T23:03:00.004Z,101390.66
2018-08-20T23:05:06.861Z,101396.20
2018-08-20T23:07:14.090Z,101395.41
2018-08-20T23:09:31.663Z,101392.45
2018-08-20T23:11:42.791Z,101394.59
2018-08-20T23:13:48.929Z,101397.89
2018-08-20T23:16:00.806Z,101404.49
2018-08-20T23:18:07.265Z,101400.92
2018-08-20T23:20:21.001Z,101401.28
2018-08-20T23:22:26.328Z,101406.87
2018-08-20T23:24:31.452Z,101412.05
2018-08-20T23:26:36.714Z,101413.68
2018-08-20T23:28:43.668Z,101409.02
2018-08-20T23:30:53.358Z,101413.29
2018-08-20T23:32:58.556Z,101413.68
2018-08-20T23:35:03.689Z,101413.26
2018-08-20T23:37:08.764Z,101409.72
2018-08-20T23:39:17.094Z,101404.45
2018-08-20T23:41:22.038Z,101411.02
2018-08-20T23:43:27.072Z,101403.28
2018-08-20T23:45:32.116Z,101397.06
2018-08-20T23:47:37.325Z,101405.84
2018-08-20T23:49:42.825Z,101403.31
2018-08-20T23:53:50.696Z,101406.98
2018-08-20T23:55:55.894Z,101404.55
2018-08-20T23:58:01.615Z,101405.91
